Terminal Aerodrome Forecast
Issued by NWS Portland, OR

Home | Current Version | Previous Version | Text Only | Print | Product List | Glossary On
Versions: 1 2 3 4 5 6 7 8 9 10 11 12 13 14
000
FTUS46 KPQR 230520
TAFSLE
TAF
KSLE 230520Z 2306/2406 19013G18KT P6SM -RA SCT025 OVC035
     FM230800 19013G18KT P6SM -SHRA SCT025 OVC040
     FM231400 19012KT P6SM -RA BKN025 OVC040
     FM232000 19015G25KT P6SM -RA BKN025 OVC035=

USA.gov is the U.S. government's official web portal to all federal, state and local government web resources and services.